CST,Max TemperatureF,Mean TemperatureF,Min TemperatureF,Max Dew PointF,MeanDew PointF,Min DewpointF,Max Humidity, Mean Humidity, Min Humidity, Max Sea Level PressureIn, Mean Sea Level PressureIn, Min Sea Level PressureIn, Max VisibilityMiles, Mean VisibilityMiles, Min VisibilityMiles, Max Wind SpeedMPH, Mean Wind SpeedMPH, Max Gust SpeedMPH,PrecipitationIn, CloudCover, Events, WindDirDegrees
2013-11-1,55,45,35,45,40,36,100,86,51,29.93,29.73,29.51,10,10,6,21,11,30,0.00,5,,303
2013-11-2,55,42,30,43,35,30,100,85,38,30.12,30.05,29.93,10,10,5,14,8,21,0.00,2,,287
2013-11-3,57,44,32,37,33,27,100,66,33,30.03,29.85,29.71,10,10,10,31,12,45,0.00,1,,158
2013-11-4,51,38,24,45,36,25,100,83,47,30.15,29.92,29.74,10,10,4,15,10,22,0.00,3,Rain,244
2013-11-5,37,30,24,37,31,25,100,99,87,30.17,30.08,29.96,10,6,0,24,7,32,0.18,6,Rain-Snow,33
2013-11-6,33,26,19,32,28,19,100,97,81,30.21,30.15,30.06,10,9,1,16,9,23,0.18,3,Rain-Snow,285
2013-11-7,35,28,21,30,27,21,100,92,70,30.33,30.26,30.20,10,7,0,13,6,18,0.00,3,Fog,251
2013-11-8,51,37,23,45,34,23,100,78,58,30.19,29.85,29.63,10,10,10,23,10,34,0.00,2,,185
2013-11-9,48,38,28,41,35,28,100,82,57,30.33,30.05,29.79,10,10,10,22,12,32,0.00,1,,292
2013-11-10,44,32,19,34,29,19,100,82,53,30.38,30.25,30.08,10,10,10,14,6,20,0.00,3,,212
2013-11-11,39,22,6,37,16,7,100,85,59,30.74,30.45,30.08,10,9,1,25,12,36,0.00,3,Rain-Snow,351
2013-11-12,30,16,3,14,9,1,100,75,40,30.80,30.67,30.45,10,10,10,13,6,14,0.00,0,,227
2013-11-13,53,38,23,30,23,12,75,58,41,30.43,30.11,29.90,10,10,10,23,14,32,0.00,0,,201
2013-11-14,57,42,26,46,35,25,100,88,33,29.92,29.87,29.82,10,10,9,12,6,17,0.00,1,Rain,249
2013-11-15,55,40,24,45,32,25,100,96,62,29.84,29.74,29.56,10,10,6,18,7,23,0.00,0,,157
2013-11-16,57,47,37,55,42,28,100,87,53,29.55,29.35,29.23,10,8,3,20,12,26,0.00,3,,185
2013-11-17,50,42,33,45,38,30,100,87,62,29.96,29.59,29.35,10,9,2,22,9,32,0.00,5,Rain,297
2013-11-18,44,35,26,36,29,27,100,88,53,30.20,30.13,29.96,10,10,9,13,8,18,0.00,0,,317
2013-11-19,59,44,30,54,36,28,100,77,38,30.16,29.94,29.81,10,10,10,26,17,36,0.00,1,,158
2013-11-20,51,40,28,41,32,25,100,68,46,29.98,29.82,29.76,10,10,10,22,15,29,0.00,2,,150
2013-11-21,32,24,17,32,23,12,100,96,59,30.55,30.30,29.99,10,8,2,29,18,34,0.00,8,Rain-Snow,351
2013-11-22,32,18,3,32,14,-2,100,86,44,30.65,30.57,30.49,10,10,10,22,11,29,0.00,1,Rain,302
2013-11-23,17,10,3,16,5,-2,100,81,49,30.84,30.75,30.65,10,10,9,21,11,26,0.00,0,,337
2013-11-24,32,18,5,32,16,0,100,87,51,30.65,30.32,30.04,10,10,10,26,14,36,0.00,0,,190
2013-11-25,41,34,26,41,29,25,100,85,57,30.15,30.06,29.98,10,10,9,23,15,29,0.00,4,,280
2013-11-26,30,18,6,30,17,-8,100,81,30,30.39,30.29,30.14,10,10,9,26,15,33,0.00,3,Snow,328
2013-11-27,28,16,3,27,7,1,100,95,39,30.39,30.16,29.94,10,10,9,22,7,30,0.00,0,,179
2013-11-28,30,19,8,23,15,-8,100,94,44,30.46,30.29,29.98,10,10,7,21,10,25,0.00,2,,342
2013-11-29,39,24,8,36,20,9,100,91,60,30.45,30.27,30.07,10,10,10,23,9,29,0.00,0,,158
2013-11-30,48,34,19,45,28,19,100,91,65,30.15,30.07,30.02,10,10,4,13,7,13,0.00,0,,300